sensor_id;sensor_type;location;lat;lon;timestamp;P1;durP1;ratioP1;P2;durP2;ratioP2
78858;SDS011;68210;52.032;4.634;2023-12-29T00:00:39;13.95;;;1.58;;
78858;SDS011;68210;52.032;4.634;2023-12-29T00:02:39;11.07;;;2.30;;
78858;SDS011;68210;52.032;4.634;2023-12-29T00:04:39;8.82;;;1.92;;
78858;SDS011;68210;52.032;4.634;2023-12-29T00:06:40;12.60;;;4.00;;
78858;SDS011;68210;52.032;4.634;2023-12-29T00:08:41;13.90;;;2.17;;
78858;SDS011;68210;52.032;4.634;2023-12-29T00:10:41;9.23;;;1.88;;
78858;SDS011;68210;52.032;4.634;2023-12-29T00:12:41;8.10;;;1.58;;
78858;SDS011;68210;52.032;4.634;2023-12-29T00:14:42;8.70;;;1.80;;
78858;SDS011;68210;52.032;4.634;2023-12-29T00:16:43;6.45;;;1.67;;
78858;SDS011;68210;52.032;4.634;2023-12-29T00:18:44;8.15;;;1.63;;
78858;SDS011;68210;52.032;4.634;2023-12-29T00:20:44;15.23;;;2.53;;
78858;SDS011;68210;52.032;4.634;2023-12-29T00:22:45;15.18;;;2.22;;
78858;SDS011;68210;52.032;4.634;2023-12-29T00:24:48;7.65;;;1.88;;
78858;SDS011;68210;52.032;4.634;2023-12-29T00:26:49;10.40;;;1.90;;
78858;SDS011;68210;52.032;4.634;2023-12-29T00:28:50;9.77;;;2.00;;
78858;SDS011;68210;52.032;4.634;2023-12-29T00:30:50;13.60;;;2.35;;
78858;SDS011;68210;52.032;4.634;2023-12-29T00:32:51;8.60;;;2.08;;
78858;SDS011;68210;52.032;4.634;2023-12-29T00:34:51;11.35;;;1.80;;
78858;SDS011;68210;52.032;4.634;2023-12-29T00:36:51;5.45;;;1.40;;
78858;SDS011;68210;52.032;4.634;2023-12-29T00:38:52;12.55;;;2.03;;
78858;SDS011;68210;52.032;4.634;2023-12-29T00:40:52;9.40;;;2.58;;
78858;SDS011;68210;52.032;4.634;2023-12-29T00:42:52;17.13;;;3.17;;
78858;SDS011;68210;52.032;4.634;2023-12-29T00:44:53;8.18;;;1.42;;
78858;SDS011;68210;52.032;4.634;2023-12-29T00:46:53;14.00;;;2.03;;
78858;SDS011;68210;52.032;4.634;2023-12-29T00:48:53;15.20;;;3.17;;
78858;SDS011;68210;52.032;4.634;2023-12-29T00:50:54;10.73;;;1.65;;
78858;SDS011;68210;52.032;4.634;2023-12-29T00:52:54;9.85;;;1.50;;
78858;SDS011;68210;52.032;4.634;2023-12-29T00:54:55;9.70;;;2.00;;
78858;SDS011;68210;52.032;4.634;2023-12-29T00:56:55;10.80;;;2.03;;
78858;SDS011;68210;52.032;4.634;2023-12-29T00:58:55;12.15;;;1.90;;
78858;SDS011;68210;52.032;4.634;2023-12-29T01:00:56;11.60;;;2.17;;
78858;SDS011;68210;52.032;4.634;2023-12-29T01:02:56;12.25;;;1.88;;
78858;SDS011;68210;52.032;4.634;2023-12-29T01:04:56;12.00;;;2.17;;
78858;SDS011;68210;52.032;4.634;2023-12-29T01:06:57;8.30;;;1.48;;
78858;SDS011;68210;52.032;4.634;2023-12-29T01:08:57;13.30;;;1.92;;
78858;SDS011;68210;52.032;4.634;2023-12-29T01:10:57;9.35;;;2.17;;
78858;SDS011;68210;52.032;4.634;2023-12-29T01:12:58;8.75;;;2.03;;
78858;SDS011;68210;52.032;4.634;2023-12-29T01:14:58;11.88;;;1.73;;
78858;SDS011;68210;52.032;4.634;2023-12-29T01:16:58;14.32;;;2.25;;
78858;SDS011;68210;52.032;4.634;2023-12-29T01:18:59;14.68;;;2.22;;
78858;SDS011;68210;52.032;4.634;2023-12-29T01:20:59;8.70;;;2.10;;
78858;SDS011;68210;52.032;4.634;2023-12-29T01:22:59;14.60;;;3.33;;
78858;SDS011;68210;52.032;4.634;2023-12-29T01:25:00;10.43;;;2.55;;
78858;SDS011;68210;52.032;4.634;2023-12-29T01:27:00;10.23;;;2.05;;
78858;SDS011;68210;52.032;4.634;2023-12-29T01:29:04;14.00;;;3.00;;
78858;SDS011;68210;52.032;4.634;2023-12-29T01:31:05;10.82;;;2.20;;
78858;SDS011;68210;52.032;4.634;2023-12-29T01:33:06;12.18;;;2.28;;
78858;SDS011;68210;52.032;4.634;2023-12-29T01:35:06;12.93;;;2.55;;
78858;SDS011;68210;52.032;4.634;2023-12-29T01:37:07;10.07;;;2.17;;
78858;SDS011;68210;52.032;4.634;2023-12-29T01:39:07;6.95;;;1.92;;
78858;SDS011;68210;52.032;4.634;2023-12-29T01:41:08;10.57;;;2.63;;
78858;SDS011;68210;52.032;4.634;2023-12-29T01:43:08;10.18;;;2.35;;
78858;SDS011;68210;52.032;4.634;2023-12-29T01:45:14;10.60;;;1.90;;
78858;SDS011;68210;52.032;4.634;2023-12-29T01:47:21;7.70;;;1.65;;
78858;SDS011;68210;52.032;4.634;2023-12-29T01:49:22;8.20;;;2.03;;
78858;SDS011;68210;52.032;4.634;2023-12-29T01:51:24;7.78;;;2.08;;
78858;SDS011;68210;52.032;4.634;2023-12-29T01:53:26;11.30;;;2.15;;
78858;SDS011;68210;52.032;4.634;2023-12-29T01:55:26;8.07;;;2.05;;
78858;SDS011;68210;52.032;4.634;2023-12-29T01:57:27;13.25;;;2.15;;
78858;SDS011;68210;52.032;4.634;2023-12-29T01:59:27;12.32;;;2.42;;
78858;SDS011;68210;52.032;4.634;2023-12-29T02:01:28;7.32;;;2.03;;
78858;SDS011;68210;52.032;4.634;2023-12-29T02:03:29;10.77;;;2.15;;
78858;SDS011;68210;52.032;4.634;2023-12-29T02:05:29;6.13;;;2.25;;
78858;SDS011;68210;52.032;4.634;2023-12-29T02:07:31;9.15;;;2.28;;
78858;SDS011;68210;52.032;4.634;2023-12-29T02:09:32;9.98;;;1.95;;
78858;SDS011;68210;52.032;4.634;2023-12-29T02:11:34;10.00;;;2.38;;
78858;SDS011;68210;52.032;4.634;2023-12-29T02:13:34;9.23;;;2.75;;
78858;SDS011;68210;52.032;4.634;2023-12-29T02:15:35;8.45;;;2.40;;
78858;SDS011;68210;52.032;4.634;2023-12-29T02:17:36;11.82;;;2.80;;
78858;SDS011;68210;52.032;4.634;2023-12-29T02:19:40;8.63;;;2.10;;
78858;SDS011;68210;52.032;4.634;2023-12-29T02:21:42;8.88;;;2.45;;
78858;SDS011;68210;52.032;4.634;2023-12-29T02:23:42;11.43;;;3.53;;
78858;SDS011;68210;52.032;4.634;2023-12-29T02:25:42;7.55;;;2.78;;
78858;SDS011;68210;52.032;4.634;2023-12-29T02:27:45;6.72;;;2.60;;
78858;SDS011;68210;52.032;4.634;2023-12-29T02:32:11;12.20;;;4.30;;
78858;SDS011;68210;52.032;4.634;2023-12-29T02:34:15;16.58;;;3.72;;
78858;SDS011;68210;52.032;4.634;2023-12-29T02:36:19;12.65;;;3.17;;
78858;SDS011;68210;52.032;4.634;2023-12-29T02:38:22;7.28;;;2.92;;
78858;SDS011;68210;52.032;4.634;2023-12-29T02:40:23;20.60;;;4.13;;
78858;SDS011;68210;52.032;4.634;2023-12-29T02:42:25;14.13;;;4.75;;
78858;SDS011;68210;52.032;4.634;2023-12-29T02:44:25;14.88;;;3.55;;
78858;SDS011;68210;52.032;4.634;2023-12-29T02:46:25;14.05;;;3.72;;
78858;SDS011;68210;52.032;4.634;2023-12-29T02:48:26;11.75;;;3.22;;
78858;SDS011;68210;52.032;4.634;2023-12-29T02:50:26;17.98;;;4.15;;
78858;SDS011;68210;52.032;4.634;2023-12-29T02:52:27;15.18;;;5.03;;
78858;SDS011;68210;52.032;4.634;2023-12-29T02:54:27;22.70;;;2.97;;
78858;SDS011;68210;52.032;4.634;2023-12-29T02:56:27;13.63;;;2.67;;
78858;SDS011;68210;52.032;4.634;2023-12-29T02:58:28;22.23;;;3.28;;
78858;SDS011;68210;52.032;4.634;2023-12-29T03:00:28;13.18;;;2.83;;
78858;SDS011;68210;52.032;4.634;2023-12-29T03:02:28;12.20;;;2.90;;
78858;SDS011;68210;52.032;4.634;2023-12-29T03:04:29;14.27;;;2.58;;
78858;SDS011;68210;52.032;4.634;2023-12-29T03:06:29;19.95;;;3.30;;
78858;SDS011;68210;52.032;4.634;2023-12-29T03:08:29;18.55;;;2.60;;
78858;SDS011;68210;52.032;4.634;2023-12-29T03:10:31;20.60;;;3.13;;
78858;SDS011;68210;52.032;4.634;2023-12-29T03:12:31;14.70;;;2.45;;
78858;SDS011;68210;52.032;4.634;2023-12-29T03:14:31;17.23;;;2.60;;
78858;SDS011;68210;52.032;4.634;2023-12-29T03:16:32;24.90;;;2.97;;
78858;SDS011;68210;52.032;4.634;2023-12-29T03:18:32;14.25;;;2.70;;
78858;SDS011;68210;52.032;4.634;2023-12-29T03:20:33;16.90;;;3.25;;
78858;SDS011;68210;52.032;4.634;2023-12-29T03:22:33;27.08;;;3.67;;
78858;SDS011;68210;52.032;4.634;2023-12-29T03:24:34;21.70;;;3.33;;
78858;SDS011;68210;52.032;4.634;2023-12-29T03:26:34;13.60;;;3.20;;
78858;SDS011;68210;52.032;4.634;2023-12-29T03:28:35;24.48;;;4.47;;
78858;SDS011;68210;52.032;4.634;2023-12-29T03:30:35;26.88;;;3.70;;
78858;SDS011;68210;52.032;4.634;2023-12-29T03:32:35;31.13;;;3.75;;
78858;SDS011;68210;52.032;4.634;2023-12-29T03:34:36;25.75;;;3.92;;
78858;SDS011;68210;52.032;4.634;2023-12-29T03:36:36;28.23;;;3.80;;
78858;SDS011;68210;52.032;4.634;2023-12-29T03:38:36;25.08;;;4.13;;
78858;SDS011;68210;52.032;4.634;2023-12-29T03:40:37;29.80;;;5.45;;
78858;SDS011;68210;52.032;4.634;2023-12-29T03:42:37;20.77;;;3.70;;
78858;SDS011;68210;52.032;4.634;2023-12-29T03:44:38;21.92;;;3.90;;
78858;SDS011;68210;52.032;4.634;2023-12-29T03:46:38;21.98;;;3.35;;
78858;SDS011;68210;52.032;4.634;2023-12-29T03:48:39;21.85;;;3.05;;
78858;SDS011;68210;52.032;4.634;2023-12-29T03:50:39;24.73;;;4.32;;
78858;SDS011;68210;52.032;4.634;2023-12-29T03:52:39;26.00;;;3.50;;
78858;SDS011;68210;52.032;4.634;2023-12-29T03:54:40;28.08;;;4.50;;
78858;SDS011;68210;52.032;4.634;2023-12-29T03:56:40;19.58;;;3.42;;
78858;SDS011;68210;52.032;4.634;2023-12-29T03:58:41;19.85;;;3.50;;
78858;SDS011;68210;52.032;4.634;2023-12-29T04:00:41;23.02;;;3.58;;
78858;SDS011;68210;52.032;4.634;2023-12-29T04:02:41;32.80;;;4.38;;
78858;SDS011;68210;52.032;4.634;2023-12-29T04:04:42;22.48;;;4.22;;
78858;SDS011;68210;52.032;4.634;2023-12-29T04:06:42;24.00;;;4.50;;
78858;SDS011;68210;52.032;4.634;2023-12-29T04:08:42;22.63;;;4.10;;
78858;SDS011;68210;52.032;4.634;2023-12-29T04:10:43;21.98;;;4.20;;
78858;SDS011;68210;52.032;4.634;2023-12-29T04:12:43;17.27;;;3.05;;
78858;SDS011;68210;52.032;4.634;2023-12-29T04:14:44;24.15;;;3.67;;
78858;SDS011;68210;52.032;4.634;2023-12-29T04:16:44;21.77;;;3.70;;
78858;SDS011;68210;52.032;4.634;2023-12-29T04:18:44;37.03;;;4.55;;
78858;SDS011;68210;52.032;4.634;2023-12-29T04:20:44;41.22;;;5.65;;
78858;SDS011;68210;52.032;4.634;2023-12-29T04:22:46;24.92;;;4.22;;
78858;SDS011;68210;52.032;4.634;2023-12-29T04:24:46;21.63;;;5.15;;
78858;SDS011;68210;52.032;4.634;2023-12-29T04:26:47;28.20;;;4.07;;
78858;SDS011;68210;52.032;4.634;2023-12-29T04:28:47;30.15;;;4.07;;
78858;SDS011;68210;52.032;4.634;2023-12-29T04:30:47;21.95;;;3.67;;
78858;SDS011;68210;52.032;4.634;2023-12-29T04:32:48;27.80;;;5.10;;
78858;SDS011;68210;52.032;4.634;2023-12-29T04:34:48;25.17;;;4.45;;
78858;SDS011;68210;52.032;4.634;2023-12-29T04:36:48;28.10;;;4.75;;
78858;SDS011;68210;52.032;4.634;2023-12-29T04:38:49;27.05;;;4.03;;
78858;SDS011;68210;52.032;4.634;2023-12-29T04:40:49;25.40;;;3.58;;
78858;SDS011;68210;52.032;4.634;2023-12-29T04:42:50;26.73;;;4.97;;
78858;SDS011;68210;52.032;4.634;2023-12-29T04:44:50;26.77;;;4.50;;
78858;SDS011;68210;52.032;4.634;2023-12-29T04:46:51;28.52;;;4.07;;
78858;SDS011;68210;52.032;4.634;2023-12-29T04:48:51;30.05;;;4.18;;
78858;SDS011;68210;52.032;4.634;2023-12-29T04:50:51;26.10;;;4.68;;
78858;SDS011;68210;52.032;4.634;2023-12-29T04:52:52;23.13;;;4.55;;
78858;SDS011;68210;52.032;4.634;2023-12-29T04:54:52;21.92;;;4.20;;
78858;SDS011;68210;52.032;4.634;2023-12-29T04:56:52;26.95;;;5.45;;
78858;SDS011;68210;52.032;4.634;2023-12-29T04:58:53;21.52;;;3.88;;
78858;SDS011;68210;52.032;4.634;2023-12-29T05:00:53;20.65;;;3.60;;
78858;SDS011;68210;52.032;4.634;2023-12-29T05:02:53;26.55;;;3.88;;
78858;SDS011;68210;52.032;4.634;2023-12-29T05:04:54;28.33;;;4.40;;
78858;SDS011;68210;52.032;4.634;2023-12-29T05:06:54;26.42;;;4.25;;
78858;SDS011;68210;52.032;4.634;2023-12-29T05:08:55;21.50;;;3.33;;
78858;SDS011;68210;52.032;4.634;2023-12-29T05:10:55;26.40;;;4.47;;
78858;SDS011;68210;52.032;4.634;2023-12-29T05:12:55;27.90;;;4.78;;
78858;SDS011;68210;52.032;4.634;2023-12-29T05:14:56;21.23;;;4.00;;
78858;SDS011;68210;52.032;4.634;2023-12-29T05:16:56;33.63;;;4.35;;
78858;SDS011;68210;52.032;4.634;2023-12-29T05:18:56;27.88;;;4.18;;
78858;SDS011;68210;52.032;4.634;2023-12-29T05:20:57;25.27;;;3.40;;
78858;SDS011;68210;52.032;4.634;2023-12-29T05:22:57;26.65;;;3.97;;
78858;SDS011;68210;52.032;4.634;2023-12-29T05:24:57;20.08;;;3.33;;
78858;SDS011;68210;52.032;4.634;2023-12-29T05:27:00;23.38;;;3.88;;
78858;SDS011;68210;52.032;4.634;2023-12-29T05:29:00;15.30;;;3.15;;
78858;SDS011;68210;52.032;4.634;2023-12-29T05:31:00;21.70;;;3.38;;
78858;SDS011;68210;52.032;4.634;2023-12-29T05:33:03;27.35;;;3.35;;
78858;SDS011;68210;52.032;4.634;2023-12-29T05:35:04;21.90;;;3.80;;
78858;SDS011;68210;52.032;4.634;2023-12-29T05:37:04;22.10;;;3.63;;
78858;SDS011;68210;52.032;4.634;2023-12-29T05:39:05;18.23;;;2.85;;
78858;SDS011;68210;52.032;4.634;2023-12-29T05:41:06;24.92;;;3.00;;
78858;SDS011;68210;52.032;4.634;2023-12-29T05:43:07;18.00;;;4.40;;
78858;SDS011;68210;52.032;4.634;2023-12-29T05:45:07;21.33;;;3.33;;
78858;SDS011;68210;52.032;4.634;2023-12-29T05:47:09;15.55;;;3.08;;
78858;SDS011;68210;52.032;4.634;2023-12-29T05:49:09;17.88;;;4.15;;
78858;SDS011;68210;52.032;4.634;2023-12-29T05:51:10;19.05;;;3.60;;
78858;SDS011;68210;52.032;4.634;2023-12-29T05:53:12;19.73;;;2.67;;
78858;SDS011;68210;52.032;4.634;2023-12-29T05:55:13;20.52;;;3.00;;
78858;SDS011;68210;52.032;4.634;2023-12-29T05:57:14;13.68;;;2.38;;
78858;SDS011;68210;52.032;4.634;2023-12-29T05:59:14;17.30;;;2.33;;
78858;SDS011;68210;52.032;4.634;2023-12-29T06:01:15;17.00;;;2.28;;
78858;SDS011;68210;52.032;4.634;2023-12-29T06:03:15;13.90;;;2.20;;
78858;SDS011;68210;52.032;4.634;2023-12-29T06:05:16;16.63;;;2.70;;
78858;SDS011;68210;52.032;4.634;2023-12-29T06:07:16;15.85;;;2.38;;
78858;SDS011;68210;52.032;4.634;2023-12-29T06:09:17;15.30;;;2.58;;
78858;SDS011;68210;52.032;4.634;2023-12-29T06:11:17;21.58;;;3.28;;
78858;SDS011;68210;52.032;4.634;2023-12-29T06:13:18;16.17;;;2.65;;
78858;SDS011;68210;52.032;4.634;2023-12-29T06:15:18;15.25;;;2.97;;
78858;SDS011;68210;52.032;4.634;2023-12-29T06:17:20;18.02;;;2.97;;
78858;SDS011;68210;52.032;4.634;2023-12-29T06:19:20;14.48;;;2.40;;
78858;SDS011;68210;52.032;4.634;2023-12-29T06:21:21;18.65;;;3.13;;
78858;SDS011;68210;52.032;4.634;2023-12-29T06:23:21;23.45;;;2.85;;
78858;SDS011;68210;52.032;4.634;2023-12-29T06:25:22;15.82;;;2.65;;
78858;SDS011;68210;52.032;4.634;2023-12-29T06:27:22;10.70;;;2.90;;
78858;SDS011;68210;52.032;4.634;2023-12-29T06:29:22;12.52;;;2.58;;
78858;SDS011;68210;52.032;4.634;2023-12-29T06:31:23;11.00;;;2.17;;
78858;SDS011;68210;52.032;4.634;2023-12-29T06:33:24;14.63;;;2.22;;
78858;SDS011;68210;52.032;4.634;2023-12-29T06:35:25;16.52;;;2.50;;
78858;SDS011;68210;52.032;4.634;2023-12-29T06:37:25;16.10;;;2.50;;
78858;SDS011;68210;52.032;4.634;2023-12-29T06:39:25;11.63;;;2.10;;
78858;SDS011;68210;52.032;4.634;2023-12-29T06:41:26;14.55;;;2.90;;
78858;SDS011;68210;52.032;4.634;2023-12-29T06:43:26;13.25;;;1.83;;
78858;SDS011;68210;52.032;4.634;2023-12-29T06:45:27;16.63;;;2.72;;
78858;SDS011;68210;52.032;4.634;2023-12-29T06:47:27;9.00;;;2.05;;
78858;SDS011;68210;52.032;4.634;2023-12-29T06:49:27;16.67;;;2.45;;
78858;SDS011;68210;52.032;4.634;2023-12-29T06:51:28;16.38;;;2.88;;
78858;SDS011;68210;52.032;4.634;2023-12-29T06:53:28;11.45;;;2.40;;
78858;SDS011;68210;52.032;4.634;2023-12-29T06:55:29;13.00;;;3.45;;
78858;SDS011;68210;52.032;4.634;2023-12-29T06:57:29;13.05;;;2.05;;
78858;SDS011;68210;52.032;4.634;2023-12-29T06:59:29;8.88;;;1.73;;
78858;SDS011;68210;52.032;4.634;2023-12-29T07:01:30;9.10;;;1.90;;
78858;SDS011;68210;52.032;4.634;2023-12-29T07:03:30;11.00;;;2.08;;
78858;SDS011;68210;52.032;4.634;2023-12-29T07:05:30;8.25;;;2.00;;
78858;SDS011;68210;52.032;4.634;2023-12-29T07:07:32;12.10;;;2.28;;
78858;SDS011;68210;52.032;4.634;2023-12-29T07:09:32;9.45;;;1.80;;
78858;SDS011;68210;52.032;4.634;2023-12-29T07:11:33;11.05;;;1.80;;
78858;SDS011;68210;52.032;4.634;2023-12-29T07:13:35;10.82;;;1.98;;
78858;SDS011;68210;52.032;4.634;2023-12-29T07:15:36;10.88;;;1.83;;
78858;SDS011;68210;52.032;4.634;2023-12-29T07:17:37;10.82;;;2.22;;
78858;SDS011;68210;52.032;4.634;2023-12-29T07:19:37;7.80;;;1.50;;
78858;SDS011;68210;52.032;4.634;2023-12-29T07:21:38;10.90;;;2.13;;
78858;SDS011;68210;52.032;4.634;2023-12-29T07:23:38;12.48;;;2.10;;
78858;SDS011;68210;52.032;4.634;2023-12-29T07:25:40;9.70;;;1.92;;
78858;SDS011;68210;52.032;4.634;2023-12-29T07:27:40;8.07;;;2.25;;
78858;SDS011;68210;52.032;4.634;2023-12-29T07:29:41;9.13;;;2.30;;
78858;SDS011;68210;52.032;4.634;2023-12-29T07:31:41;11.05;;;2.30;;
78858;SDS011;68210;52.032;4.634;2023-12-29T07:33:42;12.23;;;3.25;;
78858;SDS011;68210;52.032;4.634;2023-12-29T07:35:42;10.25;;;2.42;;
78858;SDS011;68210;52.032;4.634;2023-12-29T07:37:43;8.93;;;2.03;;
78858;SDS011;68210;52.032;4.634;2023-12-29T07:39:44;9.05;;;2.08;;
78858;SDS011;68210;52.032;4.634;2023-12-29T07:41:47;7.05;;;1.80;;
78858;SDS011;68210;52.032;4.634;2023-12-29T07:43:48;17.40;;;2.05;;
78858;SDS011;68210;52.032;4.634;2023-12-29T07:45:49;10.32;;;2.10;;
78858;SDS011;68210;52.032;4.634;2023-12-29T07:47:49;8.60;;;2.17;;
78858;SDS011;68210;52.032;4.634;2023-12-29T07:49:50;8.75;;;2.13;;
78858;SDS011;68210;52.032;4.634;2023-12-29T07:51:50;7.63;;;2.25;;
78858;SDS011;68210;52.032;4.634;2023-12-29T07:53:51;11.95;;;2.90;;
78858;SDS011;68210;52.032;4.634;2023-12-29T07:55:51;10.88;;;2.65;;
78858;SDS011;68210;52.032;4.634;2023-12-29T07:57:53;9.77;;;2.42;;
78858;SDS011;68210;52.032;4.634;2023-12-29T07:59:53;9.15;;;1.80;;
78858;SDS011;68210;52.032;4.634;2023-12-29T08:01:54;7.10;;;2.30;;
78858;SDS011;68210;52.032;4.634;2023-12-29T08:03:54;8.63;;;1.83;;
78858;SDS011;68210;52.032;4.634;2023-12-29T08:05:54;8.27;;;2.08;;
78858;SDS011;68210;52.032;4.634;2023-12-29T08:07:55;5.55;;;1.52;;
78858;SDS011;68210;52.032;4.634;2023-12-29T08:09:55;8.05;;;1.90;;
78858;SDS011;68210;52.032;4.634;2023-12-29T08:11:55;4.82;;;2.10;;
78858;SDS011;68210;52.032;4.634;2023-12-29T08:13:56;6.05;;;1.95;;
78858;SDS011;68210;52.032;4.634;2023-12-29T08:15:56;8.57;;;2.35;;
78858;SDS011;68210;52.032;4.634;2023-12-29T08:17:57;5.45;;;1.45;;
78858;SDS011;68210;52.032;4.634;2023-12-29T08:19:57;9.57;;;1.80;;
78858;SDS011;68210;52.032;4.634;2023-12-29T08:21:57;6.80;;;1.60;;
78858;SDS011;68210;52.032;4.634;2023-12-29T08:23:58;4.45;;;1.92;;
78858;SDS011;68210;52.032;4.634;2023-12-29T08:25:58;7.25;;;2.33;;
78858;SDS011;68210;52.032;4.634;2023-12-29T08:27:58;6.95;;;1.85;;
78858;SDS011;68210;52.032;4.634;2023-12-29T08:29:59;5.50;;;2.35;;
78858;SDS011;68210;52.032;4.634;2023-12-29T08:31:59;7.43;;;1.77;;
78858;SDS011;68210;52.032;4.634;2023-12-29T08:34:01;9.82;;;1.98;;
78858;SDS011;68210;52.032;4.634;2023-12-29T08:36:02;9.20;;;1.98;;
78858;SDS011;68210;52.032;4.634;2023-12-29T08:38:03;6.10;;;1.70;;
78858;SDS011;68210;52.032;4.634;2023-12-29T08:40:04;6.57;;;1.45;;
78858;SDS011;68210;52.032;4.634;2023-12-29T08:42:06;6.03;;;1.60;;
78858;SDS011;68210;52.032;4.634;2023-12-29T08:44:06;6.60;;;1.85;;
78858;SDS011;68210;52.032;4.634;2023-12-29T08:46:07;7.18;;;1.67;;
78858;SDS011;68210;52.032;4.634;2023-12-29T08:48:07;6.25;;;1.65;;
78858;SDS011;68210;52.032;4.634;2023-12-29T08:50:07;5.28;;;1.63;;
78858;SDS011;68210;52.032;4.634;2023-12-29T08:52:08;5.88;;;2.03;;
78858;SDS011;68210;52.032;4.634;2023-12-29T08:54:11;12.88;;;2.67;;
78858;SDS011;68210;52.032;4.634;2023-12-29T08:56:12;7.60;;;1.70;;
78858;SDS011;68210;52.032;4.634;2023-12-29T08:58:13;10.25;;;1.77;;
78858;SDS011;68210;52.032;4.634;2023-12-29T09:00:14;7.57;;;1.77;;
78858;SDS011;68210;52.032;4.634;2023-12-29T09:02:14;4.65;;;1.30;;
78858;SDS011;68210;52.032;4.634;2023-12-29T09:04:14;5.85;;;1.42;;
78858;SDS011;68210;52.032;4.634;2023-12-29T09:06:15;6.90;;;1.67;;
78858;SDS011;68210;52.032;4.634;2023-12-29T09:08:15;4.90;;;1.45;;
78858;SDS011;68210;52.032;4.634;2023-12-29T09:10:16;6.13;;;1.30;;
78858;SDS011;68210;52.032;4.634;2023-12-29T09:12:16;7.03;;;1.33;;
78858;SDS011;68210;52.032;4.634;2023-12-29T09:14:16;5.95;;;1.33;;
78858;SDS011;68210;52.032;4.634;2023-12-29T09:16:17;5.75;;;1.30;;
78858;SDS011;68210;52.032;4.634;2023-12-29T09:18:17;11.10;;;2.03;;
78858;SDS011;68210;52.032;4.634;2023-12-29T09:20:18;8.30;;;1.92;;
78858;SDS011;68210;52.032;4.634;2023-12-29T09:22:18;9.32;;;2.67;;
78858;SDS011;68210;52.032;4.634;2023-12-29T09:24:19;4.30;;;1.25;;
78858;SDS011;68210;52.032;4.634;2023-12-29T09:26:19;4.57;;;1.48;;
78858;SDS011;68210;52.032;4.634;2023-12-29T09:28:19;10.45;;;1.88;;
78858;SDS011;68210;52.032;4.634;2023-12-29T09:30:20;11.77;;;1.70;;
78858;SDS011;68210;52.032;4.634;2023-12-29T09:32:20;5.38;;;1.40;;
78858;SDS011;68210;52.032;4.634;2023-12-29T09:34:20;7.95;;;1.40;;
78858;SDS011;68210;52.032;4.634;2023-12-29T09:36:21;9.57;;;1.27;;
78858;SDS011;68210;52.032;4.634;2023-12-29T09:38:22;7.05;;;1.40;;
78858;SDS011;68210;52.032;4.634;2023-12-29T09:40:22;11.02;;;1.80;;
78858;SDS011;68210;52.032;4.634;2023-12-29T09:42:22;6.63;;;1.30;;
78858;SDS011;68210;52.032;4.634;2023-12-29T09:44:25;4.90;;;1.30;;
78858;SDS011;68210;52.032;4.634;2023-12-29T09:46:29;13.00;;;1.67;;
78858;SDS011;68210;52.032;4.634;2023-12-29T09:48:33;4.40;;;1.20;;
78858;SDS011;68210;52.032;4.634;2023-12-29T09:50:36;10.77;;;2.22;;
78858;SDS011;68210;52.032;4.634;2023-12-29T09:52:38;8.15;;;1.30;;
78858;SDS011;68210;52.032;4.634;2023-12-29T09:54:39;7.75;;;1.40;;
78858;SDS011;68210;52.032;4.634;2023-12-29T09:56:41;10.38;;;1.80;;
78858;SDS011;68210;52.032;4.634;2023-12-29T09:58:41;7.75;;;2.40;;
78858;SDS011;68210;52.032;4.634;2023-12-29T10:00:43;11.30;;;1.75;;
78858;SDS011;68210;52.032;4.634;2023-12-29T10:02:47;10.43;;;1.50;;
78858;SDS011;68210;52.032;4.634;2023-12-29T10:04:52;8.48;;;2.05;;
78858;SDS011;68210;52.032;4.634;2023-12-29T10:06:52;6.45;;;1.30;;
78858;SDS011;68210;52.032;4.634;2023-12-29T10:08:55;7.38;;;1.70;;
78858;SDS011;68210;52.032;4.634;2023-12-29T10:10:59;10.20;;;2.00;;
78858;SDS011;68210;52.032;4.634;2023-12-29T10:13:01;6.13;;;1.50;;
78858;SDS011;68210;52.032;4.634;2023-12-29T10:17:06;12.07;;;1.70;;
78858;SDS011;68210;52.032;4.634;2023-12-29T10:19:18;8.73;;;1.65;;
78858;SDS011;68210;52.032;4.634;2023-12-29T10:21:31;13.80;;;2.63;;
78858;SDS011;68210;52.032;4.634;2023-12-29T10:23:40;7.32;;;1.83;;
78858;SDS011;68210;52.032;4.634;2023-12-29T10:25:44;9.50;;;1.83;;
78858;SDS011;68210;52.032;4.634;2023-12-29T10:27:44;11.70;;;1.88;;
78858;SDS011;68210;52.032;4.634;2023-12-29T10:29:44;12.15;;;1.83;;
78858;SDS011;68210;52.032;4.634;2023-12-29T10:31:46;11.82;;;1.77;;
78858;SDS011;68210;52.032;4.634;2023-12-29T10:33:46;8.95;;;1.67;;
78858;SDS011;68210;52.032;4.634;2023-12-29T10:35:57;17.23;;;3.05;;
78858;SDS011;68210;52.032;4.634;2023-12-29T10:38:09;12.82;;;2.15;;
78858;SDS011;68210;52.032;4.634;2023-12-29T10:40:16;17.83;;;2.83;;
78858;SDS011;68210;52.032;4.634;2023-12-29T10:42:19;14.32;;;2.92;;
78858;SDS011;68210;52.032;4.634;2023-12-29T10:44:19;11.25;;;2.20;;
78858;SDS011;68210;52.032;4.634;2023-12-29T10:46:22;16.90;;;2.38;;
78858;SDS011;68210;52.032;4.634;2023-12-29T10:48:25;16.90;;;2.17;;
78858;SDS011;68210;52.032;4.634;2023-12-29T10:50:25;16.08;;;2.22;;
78858;SDS011;68210;52.032;4.634;2023-12-29T10:52:27;20.05;;;2.38;;
78858;SDS011;68210;52.032;4.634;2023-12-29T10:54:27;10.63;;;2.20;;
78858;SDS011;68210;52.032;4.634;2023-12-29T10:56:28;13.50;;;1.98;;
78858;SDS011;68210;52.032;4.634;2023-12-29T10:58:30;15.23;;;2.20;;
78858;SDS011;68210;52.032;4.634;2023-12-29T11:00:32;16.23;;;3.40;;
78858;SDS011;68210;52.032;4.634;2023-12-29T11:02:32;12.98;;;2.90;;
78858;SDS011;68210;52.032;4.634;2023-12-29T11:04:33;18.08;;;2.50;;
78858;SDS011;68210;52.032;4.634;2023-12-29T11:06:40;13.63;;;1.73;;
78858;SDS011;68210;52.032;4.634;2023-12-29T11:08:44;15.60;;;2.67;;
78858;SDS011;68210;52.032;4.634;2023-12-29T11:10:44;16.73;;;2.45;;
78858;SDS011;68210;52.032;4.634;2023-12-29T11:12:46;14.15;;;1.75;;
78858;SDS011;68210;52.032;4.634;2023-12-29T11:14:48;16.42;;;2.45;;
78858;SDS011;68210;52.032;4.634;2023-12-29T11:16:49;17.45;;;2.65;;
78858;SDS011;68210;52.032;4.634;2023-12-29T11:18:52;12.80;;;1.67;;
78858;SDS011;68210;52.032;4.634;2023-12-29T11:24:59;14.97;;;1.70;;
78858;SDS011;68210;52.032;4.634;2023-12-29T11:27:00;14.40;;;1.83;;
78858;SDS011;68210;52.032;4.634;2023-12-29T11:29:02;16.38;;;2.47;;
78858;SDS011;68210;52.032;4.634;2023-12-29T11:31:04;18.35;;;2.33;;
78858;SDS011;68210;52.032;4.634;2023-12-29T11:33:07;16.80;;;3.00;;
78858;SDS011;68210;52.032;4.634;2023-12-29T11:35:13;21.45;;;2.50;;
78858;SDS011;68210;52.032;4.634;2023-12-29T11:42:14;13.43;;;2.13;;
78858;SDS011;68210;52.032;4.634;2023-12-29T11:44:25;20.58;;;3.53;;
78858;SDS011;68210;52.032;4.634;2023-12-29T11:46:34;15.32;;;2.20;;
78858;SDS011;68210;52.032;4.634;2023-12-29T11:48:54;13.57;;;2.38;;
78858;SDS011;68210;52.032;4.634;2023-12-29T11:50:58;16.77;;;2.00;;
78858;SDS011;68210;52.032;4.634;2023-12-29T11:52:58;11.35;;;2.03;;
78858;SDS011;68210;52.032;4.634;2023-12-29T11:55:15;10.18;;;1.83;;
78858;SDS011;68210;52.032;4.634;2023-12-29T11:57:30;19.75;;;2.67;;
78858;SDS011;68210;52.032;4.634;2023-12-29T11:59:31;10.98;;;1.60;;
78858;SDS011;68210;52.032;4.634;2023-12-29T12:01:34;13.88;;;2.25;;
78858;SDS011;68210;52.032;4.634;2023-12-29T12:03:35;13.57;;;2.05;;
78858;SDS011;68210;52.032;4.634;2023-12-29T12:05:54;12.07;;;1.65;;
78858;SDS011;68210;52.032;4.634;2023-12-29T12:07:59;11.65;;;1.50;;
78858;SDS011;68210;52.032;4.634;2023-12-29T12:12:38;9.48;;;1.60;;
78858;SDS011;68210;52.032;4.634;2023-12-29T12:14:52;10.60;;;1.92;;
78858;SDS011;68210;52.032;4.634;2023-12-29T12:16:53;13.15;;;2.60;;
78858;SDS011;68210;52.032;4.634;2023-12-29T12:18:54;13.10;;;2.55;;